createdAt,value
2018-10-16T00:01:56.083Z,99916.14
2018-10-16T00:04:24.851Z,99917.53
2018-10-16T00:06:53.665Z,99918.53
2018-10-16T00:09:22.285Z,99922.19
2018-10-16T00:11:59.705Z,99920.09
2018-10-16T00:14:28.494Z,99923.70
2018-10-16T00:16:57.151Z,99900.47
2018-10-16T00:19:25.978Z,99926.58
2018-10-16T00:21:55.270Z,99928.45
2018-10-16T00:24:24.001Z,99929.80
2018-10-16T00:26:52.608Z,99934.75
2018-10-16T00:29:21.831Z,99935.20
2018-10-16T00:31:50.496Z,99940.58
2018-10-16T00:34:19.038Z,99941.94
2018-10-16T00:36:47.553Z,99942.89
2018-10-16T00:39:17.076Z,99942.05
2018-10-16T00:41:49.726Z,99946.11
2018-10-16T00:44:18.341Z,99940.86
2018-10-16T00:46:46.898Z,99946.72
2018-10-16T00:49:15.512Z,99944.61
2018-10-16T00:51:44.084Z,99948.37
2018-10-16T00:54:12.655Z,99946.67
2018-10-16T00:56:41.186Z,99950.67
2018-10-16T00:59:09.673Z,99875.48
2018-10-16T01:01:38.150Z,99952.94
2018-10-16T01:04:07.823Z,99961.33
2018-10-16T01:06:37.192Z,99963.09
2018-10-16T01:09:13.015Z,99964.92
2018-10-16T01:11:41.672Z,99967.62
2018-10-16T01:14:10.341Z,99971.20
2018-10-16T01:16:38.928Z,99969.92
2018-10-16T01:19:07.399Z,99977.00
2018-10-16T01:21:36.004Z,99973.98
2018-10-16T01:24:04.667Z,99972.28
2018-10-16T01:26:33.261Z,99974.12
2018-10-16T01:29:01.880Z,99974.60
2018-10-16T01:31:30.415Z,99971.14
2018-10-16T01:33:59.043Z,99972.05
2018-10-16T01:36:27.583Z,99975.16
2018-10-16T01:38:56.107Z,99975.64
2018-10-16T01:41:24.649Z,99974.76
2018-10-16T01:43:53.274Z,99965.61
2018-10-16T01:46:21.860Z,99971.33
2018-10-16T01:48:50.453Z,99968.69
2018-10-16T01:51:19.083Z,99973.15
2018-10-16T01:53:47.631Z,99976.70
2018-10-16T01:56:16.317Z,99971.02
2018-10-16T01:58:44.884Z,99969.28
2018-10-16T02:01:13.348Z,99964.50
2018-10-16T02:03:41.893Z,99970.22
2018-10-16T02:06:10.373Z,99967.73
2018-10-16T02:08:38.972Z,99965.16
2018-10-16T02:11:07.663Z,99967.45
2018-10-16T02:13:36.362Z,99967.95
2018-10-16T02:16:04.929Z,99967.50
2018-10-16T02:18:33.545Z,99967.80
2018-10-16T02:21:02.143Z,99968.11
2018-10-16T02:23:30.744Z,99965.33
2018-10-16T02:25:59.463Z,99971.42
2018-10-16T02:28:28.089Z,99971.73
2018-10-16T02:30:56.889Z,99973.44
2018-10-16T02:33:25.561Z,99982.14
2018-10-16T02:35:54.271Z,99982.94
2018-10-16T02:38:23.119Z,99981.11
2018-10-16T02:40:51.639Z,99987.20
2018-10-16T02:43:20.200Z,99981.92
2018-10-16T02:45:48.817Z,99984.54
2018-10-16T02:48:18.324Z,99979.66
2018-10-16T02:50:46.859Z,99985.39
2018-10-16T02:53:15.434Z,99963.66
2018-10-16T02:55:44.024Z,99987.59
2018-10-16T02:58:12.644Z,99985.07
2018-10-16T03:00:41.238Z,99989.95
2018-10-16T03:03:09.788Z,99993.87
2018-10-16T03:05:38.440Z,99995.51
2018-10-16T03:08:07.252Z,99988.03
2018-10-16T03:10:35.836Z,99994.09
2018-10-16T03:13:04.470Z,99992.24
2018-10-16T03:15:33.161Z,99993.97
2018-10-16T03:18:01.889Z,99994.75
2018-10-16T03:20:30.507Z,99992.94
2018-10-16T03:22:59.146Z,100002.05
2018-10-16T03:25:27.836Z,100000.66
2018-10-16T03:27:56.411Z,99993.55
2018-10-16T03:30:25.195Z,99999.66
2018-10-16T03:32:53.861Z,100005.34
2018-10-16T03:35:22.466Z,100000.47
2018-10-16T03:37:51.125Z,100002.67
2018-10-16T03:40:19.685Z,100003.11
2018-10-16T03:42:48.235Z,100000.47
2018-10-16T03:45:16.798Z,100007.95
2018-10-16T03:47:45.482Z,100004.84
2018-10-16T03:50:14.013Z,100008.33
2018-10-16T03:52:42.787Z,100007.83
2018-10-16T03:55:11.389Z,100008.64
2018-10-16T03:57:40.028Z,100009.83
2018-10-16T04:00:09.553Z,100016.34
2018-10-16T04:02:38.437Z,100018.98
2018-10-16T04:05:07.488Z,100015.97
2018-10-16T04:07:36.033Z,100010.27
2018-10-16T04:10:04.631Z,100016.03
2018-10-16T04:12:33.292Z,100019.48
2018-10-16T04:15:01.869Z,100016.84
2018-10-16T04:17:30.742Z,100020.37
2018-10-16T04:19:59.486Z,100019.45
2018-10-16T04:22:29.226Z,100019.05
2018-10-16T04:24:57.915Z,100018.98
2018-10-16T04:27:26.467Z,100001.38
2018-10-16T04:29:55.054Z,100027.05
2018-10-16T04:32:23.748Z,100027.05
2018-10-16T04:34:52.391Z,100026.60
2018-10-16T04:37:21.080Z,100031.41
2018-10-16T04:39:49.667Z,100033.14
2018-10-16T04:45:02.015Z,100035.34
2018-10-16T04:47:30.703Z,100040.13
2018-10-16T04:49:59.613Z,100039.63
2018-10-16T04:52:28.330Z,100040.50
2018-10-16T04:54:57.123Z,100016.70
2018-10-16T04:57:25.766Z,100043.89
2018-10-16T04:59:54.993Z,100045.56
2018-10-16T05:02:23.650Z,100049.39
2018-10-16T05:04:52.527Z,100046.30
2018-10-16T05:07:21.251Z,100046.30
2018-10-16T05:09:50.129Z,100050.65
2018-10-16T05:12:18.763Z,100043.97
2018-10-16T05:14:47.415Z,100049.26
2018-10-16T05:17:16.061Z,100044.86
2018-10-16T05:19:44.861Z,100046.17
2018-10-16T05:22:13.512Z,100048.31
2018-10-16T05:24:42.162Z,100048.78
2018-10-16T05:27:10.848Z,100044.34
2018-10-16T05:29:39.776Z,100051.43
2018-10-16T05:32:08.516Z,100050.04
2018-10-16T05:34:37.367Z,100046.95
2018-10-16T05:37:06.154Z,100055.80
2018-10-16T05:39:34.900Z,100060.20
2018-10-16T05:42:03.588Z,100058.04
2018-10-16T05:44:32.224Z,100058.88
2018-10-16T05:47:01.006Z,100068.55
2018-10-16T05:49:29.782Z,100062.41
2018-10-16T05:51:58.659Z,100064.17
2018-10-16T05:54:27.685Z,100073.97
2018-10-16T05:56:56.712Z,100075.39
2018-10-16T05:59:26.333Z,100070.54
2018-10-16T06:01:55.177Z,100073.52
2018-10-16T06:04:23.864Z,100073.52
2018-10-16T06:06:52.612Z,100071.29
2018-10-16T06:09:21.297Z,100077.90
2018-10-16T06:11:50.175Z,100081.36
2018-10-16T06:14:19.223Z,100075.13
2018-10-16T06:16:48.016Z,100086.48
2018-10-16T06:19:16.685Z,100093.91
2018-10-16T06:21:45.379Z,100099.09
2018-10-16T06:24:14.159Z,100098.11
2018-10-16T06:26:46.110Z,100100.66
2018-10-16T06:29:19.931Z,100100.16
2018-10-16T06:31:48.730Z,100103.61
2018-10-16T06:34:17.843Z,100100.91
2018-10-16T06:36:46.682Z,100096.83
2018-10-16T06:39:15.280Z,100099.68
2018-10-16T06:41:44.057Z,100106.59
2018-10-16T06:44:12.637Z,100100.66
2018-10-16T06:46:41.511Z,100106.72
2018-10-16T06:49:10.149Z,100111.91
2018-10-16T06:51:38.770Z,100112.22
2018-10-16T06:54:07.499Z,100107.66
2018-10-16T06:56:36.105Z,100116.78
2018-10-16T06:59:04.921Z,100117.45
2018-10-16T07:01:33.580Z,100121.14
2018-10-16T07:04:02.194Z,100119.92
2018-10-16T07:06:30.943Z,100119.44
2018-10-16T07:08:59.494Z,100119.78
2018-10-16T07:11:28.165Z,100122.66
2018-10-16T07:13:56.832Z,99553.84
2018-10-16T07:16:26.027Z,99889.36
2018-10-16T07:18:54.772Z,100134.41
2018-10-16T07:21:23.446Z,100128.92
2018-10-16T07:23:52.163Z,100131.68
2018-10-16T07:26:20.753Z,100128.11
2018-10-16T07:28:49.420Z,100125.61
2018-10-16T07:31:18.052Z,100121.81
2018-10-16T07:33:46.741Z,100126.38
2018-10-16T07:36:15.393Z,100121.59
2018-10-16T07:38:44.037Z,100122.68
2018-10-16T07:41:12.753Z,100125.17
2018-10-16T07:43:41.736Z,100131.41
2018-10-16T07:46:10.452Z,100126.45
2018-10-16T07:48:39.227Z,100127.83
2018-10-16T07:51:07.827Z,100127.69
2018-10-16T07:53:36.493Z,100131.20
2018-10-16T07:56:05.395Z,99983.52
2018-10-16T07:58:34.175Z,100130.11
2018-10-16T08:01:03.158Z,100131.27
2018-10-16T08:03:32.864Z,100127.75
2018-10-16T08:06:02.420Z,100123.42
2018-10-16T08:08:31.486Z,99992.84
2018-10-16T08:11:01.712Z,100119.94
2018-10-16T08:13:30.580Z,100118.99
2018-10-16T08:15:59.272Z,100117.41
2018-10-16T08:18:27.962Z,100107.67
2018-10-16T08:20:56.684Z,100118.20
2018-10-16T08:23:25.510Z,100119.75
2018-10-16T08:25:54.319Z,100126.66
2018-10-16T08:28:23.068Z,100123.03
2018-10-16T08:30:52.152Z,100125.22
2018-10-16T08:33:24.850Z,100121.92
2018-10-16T08:35:54.025Z,100033.07
2018-10-16T08:38:29.885Z,100129.35
2018-10-16T08:40:59.082Z,100127.09
2018-10-16T08:43:44.730Z,100124.33
2018-10-16T08:46:24.308Z,100119.73
2018-10-16T08:51:43.689Z,100122.78
2018-10-16T09:03:14.454Z,100115.72
2018-10-16T09:05:43.174Z,100124.22
2018-10-16T09:08:11.837Z,100120.60
2018-10-16T09:10:40.683Z,100126.02
2018-10-16T09:13:09.325Z,100124.90
2018-10-16T09:15:38.076Z,100127.55
2018-10-16T09:18:07.002Z,100127.98
2018-10-16T09:20:35.682Z,100131.73
2018-10-16T09:23:04.573Z,100103.84
2018-10-16T09:25:33.312Z,100126.73
2018-10-16T09:28:02.023Z,100130.12
2018-10-16T09:30:30.677Z,100137.30
2018-10-16T09:32:59.428Z,100124.84
2018-10-16T09:35:28.205Z,100131.36
2018-10-16T09:37:56.808Z,100126.23
2018-10-16T09:40:25.565Z,100127.26
2018-10-16T09:42:54.256Z,100129.02
2018-10-16T09:45:22.952Z,100131.87
2018-10-16T09:47:51.758Z,100132.28
2018-10-16T09:50:20.460Z,100137.15
2018-10-16T09:52:49.095Z,100135.72
2018-10-16T09:55:17.658Z,100139.33
2018-10-16T09:57:46.553Z,100138.11
2018-10-16T10:00:20.280Z,100137.56
2018-10-16T10:02:50.418Z,100136.01
2018-10-16T10:05:21.825Z,100134.00
2018-10-16T10:07:50.557Z,100133.98
2018-10-16T10:10:19.227Z,100136.44
2018-10-16T10:12:48.213Z,100133.62
2018-10-16T10:15:16.817Z,100132.30
2018-10-16T10:17:45.521Z,100134.92
2018-10-16T10:20:14.172Z,100125.03
2018-10-16T10:22:42.862Z,100125.09
2018-10-16T10:25:12.760Z,100128.68
2018-10-16T10:27:46.090Z,100129.30
2018-10-16T10:30:15.539Z,100128.47
2018-10-16T10:32:49.755Z,100129.17
2018-10-16T10:35:19.976Z,100125.84
2018-10-16T10:37:53.228Z,100125.52
2018-10-16T10:40:22.315Z,100121.33
2018-10-16T10:42:59.195Z,100122.94
2018-10-16T10:45:34.119Z,100119.93
2018-10-16T10:48:03.637Z,100113.77
2018-10-16T10:50:32.857Z,100110.48
2018-10-16T10:53:02.679Z,100109.08
2018-10-16T10:55:31.934Z,100110.91
2018-10-16T10:58:08.689Z,100107.27
2018-10-16T11:00:38.358Z,100106.63
2018-10-16T11:03:08.000Z,100099.39
2018-10-16T11:05:37.299Z,100102.88
2018-10-16T11:08:06.482Z,100105.47
2018-10-16T11:10:35.551Z,100102.11
2018-10-16T11:13:05.409Z,100097.73
2018-10-16T11:15:34.515Z,100104.99
2018-10-16T11:18:03.413Z,100103.40
2018-10-16T11:20:32.161Z,100098.83
2018-10-16T11:23:01.559Z,100096.80
2018-10-16T11:25:30.348Z,100096.19
2018-10-16T11:28:01.786Z,100100.20
2018-10-16T11:30:30.917Z,100101.99
2018-10-16T11:32:59.749Z,100099.44
2018-10-16T11:35:28.725Z,100101.33
2018-10-16T11:37:57.400Z,100100.09
2018-10-16T11:40:26.034Z,100097.15
2018-10-16T11:42:54.720Z,100100.41
2018-10-16T11:45:23.489Z,100090.61
2018-10-16T11:47:52.136Z,99947.73
2018-10-16T11:50:21.019Z,100094.22
2018-10-16T11:52:50.667Z,100089.53
2018-10-16T11:55:19.374Z,100094.05
2018-10-16T11:57:48.076Z,100098.09
2018-10-16T12:00:18.093Z,100095.36
2018-10-16T12:02:47.492Z,100089.91
2018-10-16T12:05:16.492Z,100089.84
2018-10-16T12:07:45.637Z,100091.98
2018-10-16T12:10:14.298Z,100087.03
2018-10-16T12:12:42.931Z,100083.36
2018-10-16T12:15:11.614Z,100087.23
2018-10-16T12:17:45.394Z,100080.06
2018-10-16T12:20:18.596Z,100082.16
2018-10-16T12:22:48.140Z,100082.31
2018-10-16T12:25:16.861Z,100071.30
2018-10-16T12:27:45.391Z,100072.62
2018-10-16T12:30:13.929Z,100077.20
2018-10-16T12:32:43.566Z,100071.77
2018-10-16T12:35:12.633Z,100074.44
2018-10-16T12:37:41.464Z,100065.41
2018-10-16T12:40:10.386Z,100064.95
2018-10-16T12:42:39.067Z,100071.19
2018-10-16T12:45:08.568Z,100065.58
2018-10-16T12:47:37.190Z,100066.58
2018-10-16T12:50:06.769Z,100069.28
2018-10-16T12:52:35.379Z,100071.11
2018-10-16T12:55:04.089Z,100068.55
2018-10-16T12:57:39.360Z,100066.16
2018-10-16T13:00:08.391Z,100065.08
2018-10-16T13:02:37.447Z,100072.05
2018-10-16T13:05:07.381Z,100068.05
2018-10-16T13:07:37.678Z,100069.97
2018-10-16T13:10:10.781Z,100067.84
2018-10-16T13:12:39.472Z,100067.27
2018-10-16T13:15:09.781Z,100063.38
2018-10-16T13:17:38.377Z,100065.00
2018-10-16T13:20:07.998Z,100068.77
2018-10-16T13:22:36.751Z,100062.20
2018-10-16T13:25:06.201Z,100061.68
2018-10-16T13:27:35.018Z,100059.23
2018-10-16T13:30:04.005Z,100059.00
2018-10-16T13:32:32.999Z,100059.89
2018-10-16T13:35:01.780Z,100059.70
2018-10-16T13:37:30.917Z,100072.69
2018-10-16T13:39:59.720Z,100052.66
2018-10-16T13:42:28.473Z,100061.64
2018-10-16T13:44:57.236Z,99962.00
2018-10-16T13:47:26.377Z,100052.19
2018-10-16T13:49:55.965Z,100056.48
2018-10-16T13:52:24.885Z,100055.94
2018-10-16T13:54:53.675Z,100060.57
2018-10-16T13:57:22.631Z,100059.58
2018-10-16T13:59:51.574Z,100064.91
2018-10-16T14:02:20.526Z,100063.94
2018-10-16T14:04:49.508Z,100060.84
2018-10-16T14:07:18.195Z,100059.94
2018-10-16T14:09:46.845Z,100065.62
2018-10-16T14:12:15.555Z,100061.52
2018-10-16T14:14:44.258Z,100064.50
2018-10-16T14:17:12.845Z,100063.78
2018-10-16T14:19:41.620Z,100059.12
2018-10-16T14:22:10.673Z,100062.70
2018-10-16T14:24:39.325Z,100064.41
2018-10-16T14:27:08.011Z,100062.84
2018-10-16T14:29:36.671Z,100063.95
2018-10-16T14:32:05.545Z,100058.83
2018-10-16T14:34:34.314Z,100075.50
2018-10-16T14:37:02.882Z,100057.36
2018-10-16T14:39:31.486Z,100061.07
2018-10-16T14:42:00.171Z,100055.97
2018-10-16T14:44:28.888Z,100056.39
2018-10-16T14:46:57.989Z,100059.47
2018-10-16T14:49:27.387Z,100060.96
2018-10-16T14:51:56.592Z,100062.45
2018-10-16T14:54:26.141Z,100059.26
2018-10-16T14:56:55.074Z,100060.87
2018-10-16T14:59:23.796Z,100070.27
2018-10-16T15:01:53.397Z,100058.48
2018-10-16T15:04:22.309Z,100064.01
2018-10-16T15:06:51.161Z,100063.59
2018-10-16T15:09:19.884Z,100061.15
2018-10-16T15:11:48.731Z,100058.04
2018-10-16T15:14:17.469Z,100062.28
2018-10-16T15:16:46.234Z,100060.66
2018-10-16T15:19:14.920Z,100057.72
2018-10-16T15:21:43.577Z,100055.48
2018-10-16T15:24:12.370Z,100050.91
2018-10-16T15:26:41.040Z,100052.12
2018-10-16T15:29:09.900Z,100053.31
2018-10-16T15:31:38.689Z,100059.77
2018-10-16T15:34:07.591Z,100057.53
2018-10-16T15:36:36.481Z,100051.89
2018-10-16T15:39:08.270Z,100054.81
2018-10-16T15:41:37.182Z,100055.79
2018-10-16T15:44:06.196Z,100054.55
2018-10-16T15:46:34.961Z,100055.62
2018-10-16T15:49:03.621Z,100059.80
2018-10-16T15:51:32.528Z,100055.02
2018-10-16T15:54:01.250Z,100057.65
2018-10-16T15:56:30.522Z,100055.80
2018-10-16T15:58:59.534Z,100068.23
2018-10-16T16:01:28.705Z,100068.67
2018-10-16T16:03:59.191Z,100068.27
2018-10-16T16:06:28.226Z,100066.52
2018-10-16T16:08:57.291Z,100068.76
2018-10-16T16:11:26.115Z,100068.55
2018-10-16T16:13:54.957Z,100066.05
2018-10-16T16:16:24.806Z,100070.23
2018-10-16T16:18:53.394Z,100070.03
2018-10-16T16:21:22.621Z,100069.33
2018-10-16T16:23:51.803Z,100072.06
2018-10-16T16:26:20.828Z,100074.38
2018-10-16T16:28:49.567Z,100077.51
2018-10-16T16:31:18.287Z,100078.70
2018-10-16T16:33:47.008Z,100079.17
2018-10-16T16:36:15.734Z,100076.14
2018-10-16T16:38:44.420Z,100076.67
2018-10-16T16:41:13.791Z,100089.73
2018-10-16T16:43:42.715Z,100086.60
2018-10-16T16:46:11.675Z,100092.33
2018-10-16T16:48:40.294Z,100090.25
2018-10-16T16:51:09.183Z,100097.45
2018-10-16T16:53:38.081Z,100103.33
2018-10-16T16:56:06.922Z,100103.22
2018-10-16T16:58:36.159Z,100102.29
2018-10-16T17:01:05.110Z,100102.59
2018-10-16T17:03:33.904Z,100103.08
2018-10-16T17:06:02.552Z,100107.16
2018-10-16T17:08:31.158Z,100106.69
2018-10-16T17:11:00.034Z,100105.83
2018-10-16T17:13:29.027Z,100102.39
2018-10-16T17:15:57.824Z,100104.67
2018-10-16T17:18:26.549Z,100108.67
2018-10-16T17:20:55.360Z,100110.41
2018-10-16T17:23:25.274Z,100108.28
2018-10-16T17:25:54.360Z,100109.22
2018-10-16T17:28:22.752Z,100107.36
2018-10-16T17:30:51.855Z,100118.80
2018-10-16T17:33:21.148Z,100116.40
2018-10-16T17:35:50.124Z,100122.02
2018-10-16T17:38:19.037Z,100122.67
2018-10-16T17:40:47.831Z,100125.92
2018-10-16T17:43:16.915Z,100127.60
2018-10-16T17:45:47.364Z,99887.27
2018-10-16T17:48:16.138Z,100123.97
2018-10-16T17:50:45.184Z,100121.45
2018-10-16T17:53:14.131Z,100126.98
2018-10-16T17:55:43.101Z,100127.64
2018-10-16T17:58:12.041Z,100129.63
2018-10-16T18:00:43.690Z,100135.23
2018-10-16T18:03:12.731Z,100132.74
2018-10-16T18:05:41.713Z,100131.67
2018-10-16T18:08:10.607Z,100134.03
2018-10-16T18:10:39.414Z,100141.20
2018-10-16T18:13:08.252Z,100144.39
2018-10-16T18:15:37.004Z,100141.31
2018-10-16T18:18:06.359Z,100137.70
2018-10-16T18:20:36.701Z,100137.01
2018-10-16T18:23:06.391Z,100144.81
2018-10-16T18:25:35.126Z,100136.67
2018-10-16T18:28:03.955Z,100141.87
2018-10-16T18:30:32.718Z,100142.13
2018-10-16T18:33:01.855Z,100140.65
2018-10-16T18:35:31.561Z,100138.61
2018-10-16T18:38:00.300Z,100142.86
2018-10-16T18:40:30.639Z,100139.92
2018-10-16T18:44:30.047Z,100145.43
2018-10-16T18:46:59.402Z,100038.30
2018-10-16T18:49:28.363Z,100144.20
2018-10-16T18:51:59.357Z,100147.37
2018-10-16T18:54:29.662Z,100147.89
2018-10-16T18:56:59.175Z,100146.73
2018-10-16T18:59:27.845Z,100154.51
2018-10-16T19:01:56.521Z,100154.75
2018-10-16T19:04:25.143Z,100153.72
2018-10-16T19:06:53.780Z,100141.06
2018-10-16T19:09:22.540Z,100149.23
2018-10-16T19:11:52.207Z,100149.40
2018-10-16T19:14:20.981Z,100147.36
2018-10-16T19:16:50.271Z,100143.91
2018-10-16T19:19:19.050Z,100154.19
2018-10-16T19:21:47.801Z,100152.47
2018-10-16T19:24:16.520Z,100146.67
2018-10-16T19:26:45.532Z,100156.50
2018-10-16T19:29:15.769Z,100157.44
2018-10-16T19:31:44.559Z,100151.72
2018-10-16T19:34:13.607Z,100158.38
2018-10-16T19:36:42.486Z,100162.84
2018-10-16T19:39:12.356Z,100159.45
2018-10-16T19:41:41.464Z,100160.47
2018-10-16T19:44:10.127Z,100165.89
2018-10-16T19:46:38.791Z,100168.63
2018-10-16T19:49:08.147Z,100168.78
2018-10-16T19:51:37.059Z,100170.67
2018-10-16T19:54:06.071Z,100169.02
2018-10-16T19:56:34.789Z,100168.23
2018-10-16T19:59:04.444Z,100165.69
2018-10-16T20:01:33.226Z,100170.23
2018-10-16T20:04:02.034Z,100174.85
2018-10-16T20:06:30.646Z,100173.74
2018-10-16T20:08:59.496Z,100178.74
2018-10-16T20:11:28.295Z,100183.84
2018-10-16T20:13:57.073Z,100184.45
2018-10-16T20:16:25.723Z,100184.61
2018-10-16T20:18:54.421Z,100184.73
2018-10-16T20:21:23.242Z,100184.43
2018-10-16T20:23:53.262Z,100188.48
2018-10-16T20:26:21.879Z,100189.48
2018-10-16T20:28:50.578Z,100189.19
2018-10-16T20:31:19.282Z,100187.98
2018-10-16T20:33:47.967Z,100183.66
2018-10-16T20:36:16.871Z,100185.14
2018-10-16T20:38:45.520Z,100183.08
2018-10-16T20:41:14.087Z,100180.98
2018-10-16T20:43:42.743Z,100183.80
2018-10-16T20:46:11.444Z,100187.56
2018-10-16T20:48:40.008Z,100187.67
2018-10-16T20:51:08.751Z,100182.95
2018-10-16T20:53:37.368Z,100183.65
2018-10-16T20:56:06.567Z,100187.80
2018-10-16T20:58:35.168Z,100182.67
2018-10-16T21:01:03.765Z,100186.39
2018-10-16T21:03:32.532Z,100188.41
2018-10-16T21:06:01.578Z,100187.73
2018-10-16T21:08:30.154Z,100188.33
2018-10-16T21:10:59.103Z,100185.53
2018-10-16T21:13:27.854Z,100196.81
2018-10-16T21:15:56.882Z,100189.81
2018-10-16T21:18:25.672Z,100193.92
2018-10-16T21:20:55.151Z,100185.63
2018-10-16T21:23:24.004Z,100184.90
2018-10-16T21:25:52.610Z,100179.77
2018-10-16T21:28:21.327Z,100177.23
2018-10-16T21:30:49.993Z,100174.77
2018-10-16T21:33:18.762Z,100175.75
2018-10-16T21:35:47.335Z,100183.44
2018-10-16T21:38:15.965Z,100175.66
2018-10-16T21:40:44.578Z,100180.24
2018-10-16T21:43:13.308Z,100175.25
2018-10-16T21:45:42.139Z,100171.46
2018-10-16T21:48:10.721Z,100177.84
2018-10-16T21:50:39.338Z,100170.91
2018-10-16T21:53:07.972Z,100168.92
2018-10-16T21:55:36.506Z,100167.30
2018-10-16T21:58:05.317Z,100168.38
2018-10-16T22:00:39.925Z,100171.16
2018-10-16T22:03:08.749Z,100168.74
2018-10-16T22:05:37.507Z,100164.50
2018-10-16T22:08:06.210Z,100167.39
2018-10-16T22:10:35.851Z,100169.83
2018-10-16T22:13:08.619Z,100162.19
2018-10-16T22:15:37.238Z,100169.95
2018-10-16T22:18:05.814Z,100163.00
2018-10-16T22:20:34.507Z,100171.63
2018-10-16T22:23:03.309Z,100168.67
2018-10-16T22:25:31.937Z,100166.14
2018-10-16T22:28:01.751Z,100169.86
2018-10-16T22:30:30.383Z,100165.52
2018-10-16T22:32:59.008Z,100164.38
2018-10-16T22:35:27.652Z,100169.28
2018-10-16T22:37:56.327Z,100161.41
2018-10-16T22:40:24.995Z,100157.11
2018-10-16T22:42:53.847Z,100159.94
2018-10-16T22:45:22.546Z,100155.20
2018-10-16T22:47:51.335Z,100161.61
2018-10-16T22:50:20.002Z,100158.25
2018-10-16T22:52:48.688Z,100151.73
2018-10-16T22:55:17.566Z,100148.77
2018-10-16T22:57:46.261Z,100148.85
2018-10-16T23:00:17.787Z,100147.57
2018-10-16T23:02:47.632Z,100154.38
2018-10-16T23:05:16.542Z,100153.16
2018-10-16T23:07:46.296Z,100151.90
2018-10-16T23:10:15.408Z,100151.98
2018-10-16T23:12:44.496Z,100156.00
2018-10-16T23:15:13.118Z,100170.71
2018-10-16T23:17:41.901Z,100154.44
2018-10-16T23:20:11.960Z,100158.13
2018-10-16T23:22:40.746Z,100152.87
2018-10-16T23:25:09.545Z,100150.38
2018-10-16T23:27:38.298Z,100154.48
2018-10-16T23:30:07.462Z,100152.39
2018-10-16T23:32:36.408Z,100150.30
2018-10-16T23:35:05.362Z,100145.56
2018-10-16T23:37:34.108Z,100149.19
2018-10-16T23:40:02.735Z,100147.17
2018-10-16T23:42:31.537Z,100149.91
2018-10-16T23:45:00.513Z,100147.77
2018-10-16T23:47:29.384Z,100144.77
2018-10-16T23:49:58.126Z,100144.83
2018-10-16T23:52:26.890Z,100144.92
2018-10-16T23:54:55.768Z,100144.11
2018-10-16T23:57:24.613Z,100138.61
2018-10-16T23:59:53.464Z,100144.13
